Time;durP1;ratioP1;P1;durP2;ratioP2;P2;SDS_P1;SDS_P2;PMS_P1;PMS_P2;Temp;Humidity;BMP_temperature;BMP_pressure;BME280_temperature;BME280_humidity;BME280_pressure;Samples;Min_cycle;Max_cycle;Signal;HPM_P1;HPM_P2
2022/07/27 00:01:52;;;;;;;3.00;1.50;;;;;;;22.82;73.04;100363.84;4827282;29;20130;-56
2022/07/27 00:04:24;;;;;;;1.60;1.33;;;;;;;22.81;73.48;100367.50;4830029;29;20098;-56
2022/07/27 00:06:55;;;;;;;2.37;1.40;;;;;;;22.73;73.04;100359.13;4828493;29;20299;-57
2022/07/27 00:09:25;;;;;;;6.40;1.70;;;;;;;22.82;72.73;100361.19;4827342;29;20058;-56
2022/07/27 00:11:56;;;;;;;5.30;1.63;;;;;;;23.04;73.67;100362.47;4829376;29;20051;-57
2022/07/27 00:14:27;;;;;;;4.07;1.67;;;;;;;23.27;73.52;100368.06;4829687;29;20376;-56
2022/07/27 00:16:59;;;;;;;10.93;2.47;;;;;;;23.43;72.59;100366.03;4829725;29;20085;-57
2022/07/27 00:19:31;;;;;;;2.23;1.67;;;;;;;23.61;71.84;100362.13;4827915;29;20276;-56
2022/07/27 00:22:01;;;;;;;3.10;1.63;;;;;;;23.75;70.89;100357.69;4821787;29;20312;-56
2022/07/27 00:24:31;;;;;;;5.37;1.90;;;;;;;24.01;70.13;100356.69;4820975;29;20167;-57
2022/07/27 00:27:02;;;;;;;10.30;2.20;;;;;;;24.20;68.90;100355.38;4819192;29;20113;-56
2022/07/27 00:29:32;;;;;;;4.73;1.73;;;;;;;24.33;68.15;100364.19;4813701;29;20080;-57
2022/07/27 00:32:03;;;;;;;5.00;2.20;;;;;;;24.47;67.48;100361.41;4823279;29;20065;-56
2022/07/27 00:34:41;;;;;;;4.00;1.53;;;;;;;24.45;66.64;100371.34;4829826;29;20094;-57
2022/07/27 00:37:11;;;;;;;4.40;1.70;;;;;;;24.26;65.69;100362.94;4829766;29;20062;-58
2022/07/27 00:39:42;;;;;;;2.73;1.87;;;;;;;24.23;67.55;100365.81;4829691;29;20089;-57
2022/07/27 00:42:12;;;;;;;3.07;2.00;;;;;;;24.39;68.38;100357.56;4829737;29;20113;-57
2022/07/27 00:44:43;;;;;;;4.27;2.20;;;;;;;24.47;68.36;100356.06;4829528;29;20279;-57
2022/07/27 00:47:14;;;;;;;4.43;2.63;;;;;;;24.50;68.04;100361.19;4829716;29;20062;-56
2022/07/27 00:49:46;;;;;;;2.90;2.10;;;;;;;24.60;69.17;100355.19;4819614;29;20085;-56
2022/07/27 00:52:17;;;;;;;4.30;2.10;;;;;;;24.42;68.16;100315.47;4810500;29;20331;-57
2022/07/27 00:54:48;;;;;;;6.10;2.10;;;;;;;24.64;66.95;100362.00;4810980;29;20149;-57
2022/07/27 00:57:18;;;;;;;5.10;2.30;;;;;;;24.61;67.62;100359.53;4811352;29;20058;-57
2022/07/27 00:59:49;;;;;;;11.70;2.17;;;;;;;24.67;67.96;100353.75;4811175;29;20059;-56
2022/07/27 01:02:19;;;;;;;11.07;2.43;;;;;;;24.76;68.31;100353.06;4811155;29;20283;-57
2022/07/27 01:04:53;;;;;;;4.53;2.70;;;;;;;24.81;68.35;100348.25;4811241;29;20055;-57
2022/07/27 01:07:26;;;;;;;2.30;1.90;;;;;;;24.75;67.01;100338.84;4810672;29;20078;-57
2022/07/27 01:09:57;;;;;;;4.77;2.40;;;;;;;24.67;67.90;100356.44;4811106;29;20059;-56
2022/07/27 01:12:30;;;;;;;17.83;2.50;;;;;;;24.61;67.52;100352.41;4810990;29;20082;-59
2022/07/27 01:15:01;;;;;;;13.40;3.13;;;;;;;24.51;67.41;100346.88;4811291;29;20407;-57
2022/07/27 01:17:32;;;;;;;5.20;2.70;;;;;;;24.33;67.25;100361.53;4811155;29;20062;-56
2022/07/27 01:20:05;;;;;;;4.37;2.90;;;;;;;24.23;68.08;100344.47;4811149;29;20055;-57
2022/07/27 01:22:37;;;;;;;4.80;2.50;;;;;;;24.35;68.00;100350.75;4811166;29;20093;-57
2022/07/27 01:25:09;;;;;;;5.10;2.97;;;;;;;24.38;68.74;100359.38;4811022;29;20130;-57
2022/07/27 01:27:39;;;;;;;16.43;3.60;;;;;;;24.46;67.65;100348.16;4811152;29;20059;-57
2022/07/27 01:33:01;;;;;;;5.20;2.83;;;;;;;24.57;67.22;100347.41;4810042;29;20068;-57
2022/07/27 01:35:32;;;;;;;7.77;2.90;;;;;;;24.13;66.68;100314.91;4810960;29;20077;-56
2022/07/27 01:38:05;;;;;;;8.83;3.53;;;;;;;24.20;67.94;100363.38;4813381;29;20319;-55
2022/07/27 01:40:38;;;;;;;21.20;4.00;;;;;;;24.16;68.08;100361.88;4806997;29;20054;-56
2022/07/27 01:43:08;;;;;;;21.87;3.90;;;;;;;24.16;69.33;100367.22;4809729;29;20343;-57
2022/07/27 01:45:40;;;;;;;18.63;3.57;;;;;;;24.18;70.00;100359.97;4810204;29;20051;-56
2022/07/27 01:48:11;;;;;;;5.43;2.93;;;;;;;24.04;69.20;100340.47;4809730;29;20111;-56
2022/07/27 01:50:42;;;;;;;22.00;4.47;;;;;;;24.15;69.41;100358.38;4809260;29;20239;-56
2022/07/27 01:53:18;;;;;;;12.20;3.60;;;;;;;24.05;68.43;100354.66;4809500;29;20154;-56
2022/07/27 01:55:48;;;;;;;8.80;3.03;;;;;;;24.02;70.37;100349.53;4810498;29;20065;-54
2022/07/27 01:58:19;;;;;;;10.67;3.60;;;;;;;24.04;70.45;100348.47;4809501;29;20063;-56
2022/07/27 02:00:50;;;;;;;9.10;3.90;;;;;;;23.99;70.86;100345.28;4809850;29;20330;-57
2022/07/27 02:03:20;;;;;;;5.07;2.97;;;;;;;24.10;70.68;100341.84;4809998;29;20070;-57
2022/07/27 02:05:51;;;;;;;6.37;3.07;;;;;;;24.17;71.02;100347.59;4809364;29;20055;-55
2022/07/27 02:08:23;;;;;;;21.20;4.77;;;;;;;24.22;70.40;100345.44;4809956;29;20300;-56
2022/07/27 02:13:37;;;;;;;11.83;3.50;;;;;;;24.43;68.64;100327.84;4790030;29;20067;-56
2022/07/27 02:16:08;;;;;;;6.07;3.40;;;;;;;24.61;69.28;100330.16;4809745;29;20066;-56
2022/07/27 02:18:46;;;;;;;6.35;3.33;;;;;;;24.77;68.66;100325.38;4808958;29;20314;-56
2022/07/27 02:21:17;;;;;;;8.73;3.43;;;;;;;24.85;68.65;100312.28;4809918;29;20200;-57
2022/07/27 02:23:49;;;;;;;8.67;3.20;;;;;;;24.97;67.25;100319.38;4809791;29;20072;-57
2022/07/27 02:26:20;;;;;;;7.27;3.80;;;;;;;25.12;67.70;100316.53;4810077;29;20047;-56
2022/07/27 02:28:50;;;;;;;9.90;3.50;;;;;;;25.24;67.27;100318.28;4810122;29;20055;-56
2022/07/27 02:31:21;;;;;;;12.73;3.60;;;;;;;25.28;65.96;100309.03;4810099;29;20345;-57
2022/07/27 02:33:51;;;;;;;7.87;3.70;;;;;;;25.28;65.09;100314.41;4809360;29;20058;-57
2022/07/27 02:36:22;;;;;;;9.07;3.50;;;;;;;25.26;64.53;100319.03;4809603;29;20062;-57
2022/07/27 02:38:54;;;;;;;4.67;3.17;;;;;;;25.02;64.54;100307.50;4809678;29;20062;-57
2022/07/27 02:41:24;;;;;;;8.80;3.73;;;;;;;24.77;64.42;100325.38;4808938;29;20061;-57
2022/07/27 02:43:55;;;;;;;18.80;3.63;;;;;;;24.78;65.85;100316.41;4809760;29;20291;-57
2022/07/27 02:46:25;;;;;;;12.13;3.60;;;;;;;24.77;67.12;100330.72;4809378;29;20076;-56
2022/07/27 02:48:56;;;;;;;8.27;3.57;;;;;;;24.77;67.72;100330.72;4809631;29;20165;-56
2022/07/27 02:51:26;;;;;;;8.80;3.90;;;;;;;24.66;68.08;100334.22;4809525;29;20062;-56
2022/07/27 02:53:59;;;;;;;9.27;3.97;;;;;;;24.29;66.82;100310.19;4809575;29;20066;-57
2022/07/27 02:56:30;;;;;;;13.70;4.57;;;;;;;24.02;67.43;100307.69;4809401;29;20073;-57
2022/07/27 02:59:00;;;;;;;9.83;3.70;;;;;;;24.06;68.38;100327.88;4809527;29;20121;-57
2022/07/27 03:01:31;;;;;;;10.23;4.50;;;;;;;23.83;71.29;100331.31;4809149;29;20073;-56
2022/07/27 03:04:01;;;;;;;15.33;5.37;;;;;;;23.48;73.39;100331.91;4809081;29;20126;-57
2022/07/27 03:06:32;;;;;;;13.37;3.93;;;;;;;23.38;74.24;100322.84;4809551;29;20066;-57
2022/07/27 03:09:05;;;;;;;7.67;4.53;;;;;;;23.38;73.50;100336.19;4809422;29;20130;-57
2022/07/27 03:11:35;;;;;;;13.10;5.97;;;;;;;23.27;74.23;100330.75;4809287;29;20117;-57
2022/07/27 03:14:06;;;;;;;15.30;4.00;;;;;;;23.21;75.29;100322.22;4809163;29;20039;-57
2022/07/27 03:16:36;;;;;;;33.13;4.97;;;;;;;23.11;76.31;100326.44;4809221;29;20307;-57
2022/07/27 03:19:07;;;;;;;30.27;9.20;;;;;;;22.95;76.62;100325.75;4809308;29;20104;-56
2022/07/27 03:21:37;;;;;;;21.50;4.90;;;;;;;22.84;77.21;100315.81;4808906;29;20266;-57
2022/07/27 03:24:10;;;;;;;10.57;4.20;;;;;;;22.65;78.31;100297.53;4809174;29;20059;-57
2022/07/27 03:26:40;;;;;;;5.93;3.80;;;;;;;22.86;77.66;100316.53;4809373;29;20121;-57
2022/07/27 03:29:12;;;;;;;8.37;3.53;;;;;;;22.98;78.27;100310.41;4809083;29;20054;-57
2022/07/27 03:31:44;;;;;;;15.87;7.17;;;;;;;22.91;78.31;100305.56;4809285;29;20320;-57
2022/07/27 03:34:16;;;;;;;9.47;4.30;;;;;;;22.99;78.07;100308.63;4809050;29;20069;-57
2022/07/27 03:36:47;;;;;;;14.53;4.60;;;;;;;23.07;77.66;100313.44;4808872;29;20062;-57
2022/07/27 03:39:19;;;;;;;14.37;4.43;;;;;;;23.30;77.11;100309.19;4808581;29;20050;-57
2022/07/27 03:41:50;;;;;;;17.87;5.80;;;;;;;23.46;76.12;100307.16;4807953;29;20058;-57
2022/07/27 03:44:20;;;;;;;11.43;5.17;;;;;;;23.25;76.57;100307.69;4808741;29;20050;-56
2022/07/27 03:46:51;;;;;;;14.47;4.67;;;;;;;23.13;77.44;100308.53;4808679;29;20220;-57
2022/07/27 03:49:21;;;;;;;10.40;3.93;;;;;;;23.17;77.68;100303.84;4808555;29;20066;-56
2022/07/27 03:51:52;;;;;;;17.43;7.90;;;;;;;23.20;77.74;100304.50;4807621;29;20054;-57
2022/07/27 03:54:24;;;;;;;20.57;6.53;;;;;;;23.36;76.24;100293.63;4808502;29;20055;-57
2022/07/27 03:56:55;;;;;;;7.50;4.60;;;;;;;23.50;74.84;100295.34;4808504;29;20071;-57
2022/07/27 03:59:26;;;;;;;8.03;4.07;;;;;;;23.37;76.28;100290.00;4807892;29;20054;-56
2022/07/27 04:01:56;;;;;;;13.93;6.47;;;;;;;23.19;77.40;100297.47;4808538;29;20257;-57
2022/07/27 04:04:27;;;;;;;8.40;5.33;;;;;;;23.12;77.83;100306.84;4808463;29;20062;-56
2022/07/27 04:06:58;;;;;;;13.90;5.50;;;;;;;23.10;78.40;100302.56;4808537;29;20099;-56
2022/07/27 04:09:30;;;;;;;12.87;4.47;;;;;;;23.12;78.46;100301.50;4808796;29;20279;-56
2022/07/27 04:12:01;;;;;;;18.00;4.73;;;;;;;23.02;78.38;100297.75;4808542;29;20051;-56
2022/07/27 04:14:31;;;;;;;25.07;5.37;;;;;;;22.88;79.69;100303.13;4807874;29;20107;-57
2022/07/27 04:17:02;;;;;;;13.40;4.77;;;;;;;22.91;79.66;100300.25;4808583;29;20290;-56
2022/07/27 04:19:33;;;;;;;18.77;4.97;;;;;;;22.95;80.31;100304.44;4808215;29;20065;-56
2022/07/27 04:22:03;;;;;;;14.53;4.60;;;;;;;22.91;80.10;100302.91;4807585;29;20212;-56
2022/07/27 04:24:36;;;;;;;8.03;4.47;;;;;;;22.76;80.18;100294.97;4808237;29;20065;-57
2022/07/27 04:27:06;;;;;;;15.37;4.43;;;;;;;22.78;80.37;100292.22;4808343;29;20278;-56
2022/07/27 04:29:37;;;;;;;9.67;3.77;;;;;;;22.71;79.79;100291.78;4807921;29;20085;-57
2022/07/27 04:32:10;;;;;;;16.43;4.87;;;;;;;22.62;79.96;100295.06;4825599;29;20062;-56
2022/07/27 04:34:41;;;;;;;10.07;5.00;;;;;;;22.49;80.10;100291.47;4826283;29;20066;-56
2022/07/27 04:37:11;;;;;;;13.53;4.20;;;;;;;22.48;80.56;100300.44;4826318;29;20063;-57
2022/07/27 04:39:43;;;;;;;19.17;5.00;;;;;;;22.45;80.65;100284.66;4826086;29;20096;-57
2022/07/27 04:42:14;;;;;;;18.93;5.10;;;;;;;22.43;80.77;100289.22;4826325;29;20058;-57
2022/07/27 04:44:45;;;;;;;10.57;4.40;;;;;;;22.47;80.77;100293.41;4826251;29;20068;-58
2022/07/27 04:47:15;;;;;;;16.67;4.83;;;;;;;22.37;80.60;100282.50;4826404;29;20473;-57
2022/07/27 04:49:46;;;;;;;21.73;5.20;;;;;;;22.40;80.83;100293.81;4826445;29;20066;-56
2022/07/27 04:52:17;;;;;;;12.73;4.40;;;;;;;22.31;80.69;100294.38;4825892;29;20070;-56
2022/07/27 04:54:56;;;;;;;8.85;4.65;;;;;;;22.18;80.81;100298.78;4825883;29;20055;-57
2022/07/27 04:57:27;;;;;;;11.57;4.77;;;;;;;22.16;81.63;100284.69;4826003;29;20159;-58
2022/07/27 05:00:00;;;;;;;12.80;4.53;;;;;;;22.13;82.40;100287.56;4826063;29;20066;-56
2022/07/27 05:02:30;;;;;;;7.03;4.00;;;;;;;22.05;81.06;100289.88;4825724;29;20077;-56
2022/07/27 05:05:02;;;;;;;7.43;4.17;;;;;;;21.89;81.30;100298.84;4826001;29;20054;-54
2022/07/27 05:07:32;;;;;;;12.70;4.40;;;;;;;21.72;82.30;100297.22;4825501;29;20347;-56
2022/07/27 05:10:05;;;;;;;12.90;4.80;;;;;;;21.57;83.50;100307.94;4826552;29;20279;-56
2022/07/27 05:12:37;;;;;;;10.90;5.00;;;;;;;21.37;84.27;100296.72;4829405;29;20292;-57
2022/07/27 05:15:09;;;;;;;10.33;5.03;;;;;;;21.32;84.85;100294.31;4829632;29;20292;-56
2022/07/27 05:17:39;;;;;;;18.57;6.03;;;;;;;21.21;85.57;100294.09;4829003;29;20307;-57
2022/07/27 05:20:12;;;;;;;17.30;5.80;;;;;;;21.24;86.09;100290.41;4828568;29;20614;-57
2022/07/27 05:22:42;;;;;;;11.90;4.70;;;;;;;21.22;85.42;100297.63;4828495;29;20500;-57
2022/07/27 05:25:14;;;;;;;22.67;5.97;;;;;;;21.27;85.47;100292.91;4828756;29;20310;-57
2022/07/27 05:27:45;;;;;;;15.37;4.53;;;;;;;21.33;85.33;100284.53;4829286;29;20363;-56
2022/07/27 05:30:24;;;;;;;18.50;5.33;;;;;;;21.18;85.29;100281.00;4828483;29;20335;-57
2022/07/27 05:32:55;;;;;;;17.63;4.87;;;;;;;20.87;85.43;100284.66;4829071;29;20740;-57
2022/07/27 05:35:26;;;;;;;20.07;5.47;;;;;;;20.72;86.30;100283.75;4828725;29;20564;-56
2022/07/27 05:37:56;;;;;;;9.40;5.97;;;;;;;20.64;86.72;100284.19;4828921;29;20279;-57
2022/07/27 05:40:29;;;;;;;20.33;5.90;;;;;;;20.61;86.65;100287.00;4828629;29;20347;-57
2022/07/27 05:43:00;;;;;;;7.23;5.07;;;;;;;20.61;87.26;100280.84;4828955;29;20373;-56
2022/07/27 05:45:30;;;;;;;10.80;5.33;;;;;;;20.56;87.51;100283.75;4828921;29;20299;-57
2022/07/27 05:48:01;;;;;;;14.40;5.60;;;;;;;20.48;87.05;100291.28;4828780;29;20299;-57
2022/07/27 05:50:32;;;;;;;7.00;4.53;;;;;;;20.26;87.07;100286.31;4828822;29;20303;-56
2022/07/27 05:53:02;;;;;;;10.47;5.63;;;;;;;20.10;88.01;100286.34;4828639;29;20464;-57
2022/07/27 05:55:35;;;;;;;7.83;5.17;;;;;;;20.11;88.46;100282.72;4828648;29;20417;-56
2022/07/27 05:58:05;;;;;;;13.23;5.10;;;;;;;20.10;88.94;100286.34;4828569;29;20295;-56
2022/07/27 06:00:36;;;;;;;14.27;5.47;;;;;;;20.09;89.47;100289.91;4828359;29;20315;-57
2022/07/27 06:03:07;;;;;;;10.10;4.90;;;;;;;20.10;89.60;100286.34;4828094;29;20498;-56
2022/07/27 06:05:38;;;;;;;13.17;4.93;;;;;;;19.97;89.81;100290.63;4827735;29;20486;-57
2022/07/27 06:08:08;;;;;;;10.50;5.17;;;;;;;19.82;89.29;100298.47;4827056;29;20304;-56
2022/07/27 06:10:41;;;;;;;11.43;5.10;;;;;;;19.76;90.16;100282.88;4828358;29;20715;-57
2022/07/27 06:13:12;;;;;;;13.53;5.70;;;;;;;19.68;90.52;100290.38;4827337;29;20736;-57
2022/07/27 06:15:43;;;;;;;12.27;5.40;;;;;;;19.58;90.16;100283.84;4828198;29;20295;-58
2022/07/27 06:18:17;;;;;;;9.47;4.93;;;;;;;19.52;91.09;100282.38;4828184;29;20304;-57
2022/07/27 06:20:48;;;;;;;9.47;4.90;;;;;;;19.48;90.99;100287.91;4828386;29;20326;-56
2022/07/27 06:23:19;;;;;;;11.23;5.17;;;;;;;19.38;91.20;100299.00;4827694;29;20434;-57
2022/07/27 06:25:52;;;;;;;8.47;4.70;;;;;;;19.22;91.60;100292.78;4828116;29;20311;-59
2022/07/27 06:28:23;;;;;;;12.23;5.13;;;;;;;19.12;91.48;100296.84;4827673;29;20379;-57
2022/07/27 06:30:54;;;;;;;13.33;5.47;;;;;;;18.96;92.09;100302.91;4827866;29;20334;-57
2022/07/27 06:33:29;;;;;;;15.37;5.50;;;;;;;18.84;92.87;100303.53;4827446;29;20315;-56
2022/07/27 06:36:01;;;;;;;11.33;4.13;;;;;;;18.84;93.29;100297.38;4827646;29;20310;-57
2022/07/27 06:38:32;;;;;;;9.67;4.87;;;;;;;18.79;93.45;100294.97;4828012;29;20347;-56
2022/07/27 06:41:04;;;;;;;7.80;4.63;;;;;;;18.78;93.76;100303.00;4827133;29;20410;-55
2022/07/27 06:43:35;;;;;;;8.77;5.17;;;;;;;18.71;94.32;100302.41;4827710;29;20465;-55
2022/07/27 06:46:11;;;;;;;8.87;4.80;;;;;;;18.60;94.78;100296.78;4827712;29;20498;-55
2022/07/27 06:48:42;;;;;;;12.83;5.50;;;;;;;18.57;95.18;100310.16;4826784;29;20326;-55
2022/07/27 06:51:14;;;;;;;7.70;4.90;;;;;;;18.62;96.15;100313.44;4827682;29;20614;-56
2022/07/27 06:53:45;;;;;;;7.97;4.37;;;;;;;18.68;96.22;100313.16;4827022;29;20364;-56
2022/07/27 06:56:17;;;;;;;6.23;3.77;;;;;;;18.59;96.22;100318.88;4827651;29;20306;-53
2022/07/27 06:58:48;;;;;;;7.07;4.50;;;;;;;18.60;96.47;100315.31;4827214;29;20299;-55
2022/07/27 07:01:18;;;;;;;6.37;4.30;;;;;;;18.56;96.50;100324.31;4827764;29;20315;-56
2022/07/27 07:03:49;;;;;;;7.13;4.77;;;;;;;18.60;97.33;100315.31;4827487;29;20307;-53
2022/07/27 07:06:20;;;;;;;8.23;5.27;;;;;;;18.51;96.71;100316.59;4827353;29;20902;-54
2022/07/27 07:08:52;;;;;;;6.50;4.80;;;;;;;18.41;96.97;100321.47;4827464;29;20299;-56
2022/07/27 07:11:30;;;;;;;7.73;5.07;;;;;;;18.32;97.28;100317.50;4827308;29;20301;-55
2022/07/27 07:14:02;;;;;;;8.27;5.67;;;;;;;18.26;97.10;100322.22;4827427;29;20306;-54
2022/07/27 07:16:34;;;;;;;7.07;4.83;;;;;;;18.23;97.40;100317.06;4827180;29;20306;-55
2022/07/27 07:19:05;;;;;;;6.27;4.90;;;;;;;18.21;97.78;100316.28;4826550;29;20623;-53
2022/07/27 07:21:36;;;;;;;7.40;4.73;;;;;;;18.30;98.10;100323.78;4826931;29;20319;-55
2022/07/27 07:24:08;;;;;;;8.97;4.13;;;;;;;18.28;97.93;100325.66;4827192;29;20304;-56
2022/07/27 07:26:41;;;;;;;7.17;4.43;;;;;;;18.29;98.03;100322.06;4827184;29;20483;-55
2022/07/27 07:29:15;;;;;;;8.73;4.43;;;;;;;18.18;97.59;100327.88;4826090;29;20331;-56
2022/07/27 07:31:46;;;;;;;8.30;4.43;;;;;;;18.06;97.87;100315.22;4811939;29;20287;-54
2022/07/27 07:34:17;;;;;;;7.53;4.20;;;;;;;18.13;97.89;100326.38;4825308;29;20505;-56
2022/07/27 07:36:49;;;;;;;6.30;4.53;;;;;;;18.26;97.86;100333.66;4826988;29;20327;-53
2022/07/27 07:39:20;;;;;;;8.73;4.27;;;;;;;18.23;97.63;100333.78;4823641;29;20299;-52
2022/07/27 07:41:53;;;;;;;7.33;4.67;;;;;;;18.22;97.75;100341.78;4826731;29;20335;-54
2022/07/27 07:44:24;;;;;;;7.40;4.63;;;;;;;18.09;97.58;100337.06;4826769;29;20485;-56
2022/07/27 07:46:56;;;;;;;6.80;4.00;;;;;;;18.05;97.58;100340.81;4826751;29;20298;-56
2022/07/27 07:49:27;;;;;;;7.17;4.60;;;;;;;17.98;97.77;100349.94;4826819;29;20619;-55
2022/07/27 07:52:08;;;;;;;5.87;3.73;;;;;;;17.93;97.59;100351.09;4826668;29;20333;-56
2022/07/27 07:54:40;;;;;;;4.60;3.50;;;;;;;17.85;98.28;100354.06;4810572;29;20649;-56
2022/07/27 07:57:14;;;;;;;4.93;3.53;;;;;;;17.84;98.61;100352.34;4826580;29;20296;-56
2022/07/27 07:59:46;;;;;;;5.97;4.10;;;;;;;17.74;98.68;100340.44;4826598;29;20327;-53
2022/07/27 08:02:16;;;;;;;5.90;3.90;;;;;;;17.89;99.07;100345.06;4826759;29;20835;-56
2022/07/27 08:04:48;;;;;;;7.30;4.13;;;;;;;17.89;98.90;100339.78;4826948;29;20568;-56
2022/07/27 08:07:22;;;;;;;8.13;4.37;;;;;;;17.86;98.60;100339.91;4826619;29;20323;-56
2022/07/27 08:09:53;;;;;;;7.33;4.27;;;;;;;17.85;98.92;100349.66;4825956;29;20310;-56
2022/07/27 08:12:25;;;;;;;6.40;4.17;;;;;;;17.83;99.01;100350.66;4826468;29;20299;-55
2022/07/27 08:14:57;;;;;;;7.00;4.30;;;;;;;17.76;98.86;100344.72;4826352;29;20306;-56
2022/07/27 08:17:27;;;;;;;5.53;3.67;;;;;;;17.71;98.98;100359.09;4826430;29;20302;-57
2022/07/27 08:19:58;;;;;;;6.13;4.30;;;;;;;17.62;99.05;100358.56;4826411;29;20295;-58
2022/07/27 08:22:29;;;;;;;6.27;3.93;;;;;;;17.61;99.41;100367.41;4826313;29;20311;-55
2022/07/27 08:24:59;;;;;;;5.33;3.90;;;;;;;17.60;99.59;100371.00;4826562;29;20358;-54
2022/07/27 08:27:41;;;;;;;6.03;4.10;;;;;;;17.63;99.83;100370.84;4826886;29;20314;-55
2022/07/27 08:30:16;;;;;;;5.87;4.37;;;;;;;17.63;100.00;100370.84;4825570;29;20596;-55
2022/07/27 08:32:49;;;;;;;5.50;4.80;;;;;;;17.67;99.83;100375.09;4826058;29;20287;-55
2022/07/27 08:35:21;;;;;;;6.80;3.83;;;;;;;17.66;99.74;100376.00;4826647;29;20295;-55
2022/07/27 08:37:52;;;;;;;5.87;4.40;;;;;;;17.63;99.75;100381.41;4825682;29;20574;-52
2022/07/27 08:40:23;;;;;;;7.33;5.00;;;;;;;17.58;100.00;100383.41;4825370;29;20570;-54
2022/07/27 08:43:14;;;;;;;5.97;4.27;;;;;;;17.51;100.00;100387.22;4826032;29;20325;-55
2022/07/27 08:45:55;;;;;;;8.07;4.63;;;;;;;17.48;100.00;100382.09;4828313;29;20315;-55
2022/07/27 08:48:28;;;;;;;6.00;4.87;;;;;;;17.44;100.00;100376.06;4829711;29;20291;-55
2022/07/27 08:50:58;;;;;;;6.20;4.53;;;;;;;17.49;100.00;100383.78;4829654;29;20283;-53
2022/07/27 08:53:32;;;;;;;5.80;4.57;;;;;;;17.39;100.00;100390.41;4829745;29;20295;-55
2022/07/27 08:56:22;;;;;;;5.63;4.43;;;;;;;17.35;100.00;100397.59;4829660;29;20966;-51
2022/07/27 08:58:55;;;;;;;5.70;4.60;;;;;;;17.25;100.00;100393.63;4829864;29;20354;-53
2022/07/27 09:01:25;;;;;;;6.67;4.10;;;;;;;17.24;100.00;100408.59;4829753;29;20302;-54
2022/07/27 09:03:56;;;;;;;5.57;4.20;;;;;;;17.25;100.00;100407.69;4829602;29;20307;-54
2022/07/27 09:06:43;;;;;;;5.73;3.80;;;;;;;17.12;100.00;100390.63;4829678;29;20291;-54
2022/07/27 09:09:23;;;;;;;4.33;3.33;;;;;;;17.14;100.00;100420.47;4829541;29;20300;-54
2022/07/27 09:12:08;;;;;;;5.47;2.80;;;;;;;17.05;100.00;100410.31;4829133;29;20283;-56
2022/07/27 09:14:42;;;;;;;4.20;3.03;;;;;;;16.98;100.00;100403.56;4829148;29;20299;-50
2022/07/27 09:17:24;;;;;;;6.43;2.70;;;;;;;16.94;100.00;100404.59;4829252;29;20302;-55
2022/07/27 09:20:17;;;;;;;4.95;2.30;;;;;;;16.95;100.00;100419.53;4828937;29;20580;-52
2022/07/27 09:22:51;;;;;;;4.63;2.37;;;;;;;16.79;100.00;100409.53;4829096;29;20305;-55
2022/07/27 09:25:24;;;;;;;5.47;2.67;;;;;;;16.78;100.00;100413.13;4829199;29;20283;-51
2022/07/27 09:28:14;;;;;;;8.60;3.00;;;;;;;16.73;100.00;100420.31;4828812;29;20296;-55
2022/07/27 09:30:47;;;;;;;6.80;2.50;;;;;;;16.70;100.00;100425.72;4828841;29;20868;-49
2022/07/27 09:33:17;;;;;;;5.70;2.40;;;;;;;16.74;100.00;100423.81;4828813;29;20292;-53
2022/07/27 09:35:59;;;;;;;5.87;2.40;;;;;;;16.78;100.00;100425.47;4828861;29;20292;-54
2022/07/27 09:38:29;;;;;;;3.13;2.03;;;;;;;16.78;100.00;100428.94;4828259;29;20332;-54
2022/07/27 09:41:00;;;;;;;4.57;2.33;;;;;;;16.76;100.00;100430.75;4827990;29;20311;-51
2022/07/27 09:43:44;;;;;;;2.57;1.77;;;;;;;16.74;100.00;100437.88;4828562;29;20350;-53
2022/07/27 09:46:38;;;;;;;3.30;1.90;;;;;;;16.70;100.00;100433.66;4827339;29;20501;-53
2022/07/27 09:49:28;;;;;;;3.77;2.30;;;;;;;16.69;100.00;100439.81;4828353;29;20314;-52
2022/07/27 09:51:59;;;;;;;4.03;2.08;;;;;;;16.64;100.00;100436.50;4828518;29;20296;-54
2022/07/27 09:54:45;;;;;;;2.33;1.90;;;;;;;16.53;100.00;100417.59;4827524;29;20089;-53
2022/07/27 09:57:17;;;;;;;2.57;1.70;;;;;;;16.38;100.00;100393.53;4827436;29;20299;-54
2022/07/27 09:59:48;;;;;;;3.87;1.90;;;;;;;16.71;100.00;100448.53;4828705;29;20395;-52
2022/07/27 10:02:21;;;;;;;4.33;1.83;;;;;;;16.68;100.00;100448.66;4828701;29;20555;-54
2022/07/27 10:04:52;;;;;;;3.23;1.50;;;;;;;16.65;100.00;100443.53;4828512;29;20306;-54
2022/07/27 10:07:22;;;;;;;4.23;1.70;;;;;;;16.65;100.00;100448.78;4828753;29;20453;-53
2022/07/27 10:09:53;;;;;;;4.13;1.63;;;;;;;16.67;100.00;100449.56;4828564;29;20303;-56
2022/07/27 10:12:24;;;;;;;1.73;1.60;;;;;;;16.66;100.00;100445.22;4827864;29;20292;-56
2022/07/27 10:14:55;;;;;;;3.50;1.70;;;;;;;16.66;100.00;100449.66;4827285;29;20312;-55
2022/07/27 10:17:28;;;;;;;2.43;1.40;;;;;;;16.63;100.00;100450.63;4826713;29;20840;-56
2022/07/27 10:20:02;;;;;;;2.50;1.30;;;;;;;16.62;100.00;100454.16;4828256;29;20372;-56
2022/07/27 10:22:52;;;;;;;1.10;1.00;;;;;;;16.61;100.00;100449.81;4827677;29;20400;-56
2022/07/27 10:25:22;;;;;;;;;;;;;;;16.62;100.00;100454.16;4828626;29;20360;-56
2022/07/27 10:28:13;;;;;;;2.07;1.20;;;;;;;16.59;100.00;100460.41;4828234;29;19925;-56
2022/07/27 10:30:44;;;;;;;2.33;1.20;;;;;;;16.58;100.00;100465.78;4827895;29;20303;-56
2022/07/27 10:33:45;;;;;;;3.23;1.17;;;;;;;16.55;100.00;100469.38;4828419;29;20377;-54
2022/07/27 10:36:18;;;;;;;3.70;1.50;;;;;;;16.55;100.00;100464.09;4827584;29;20307;-52
2022/07/27 10:38:51;;;;;;;1.60;1.37;;;;;;;16.52;100.00;100473.91;4827581;29;20321;-47
2022/07/27 10:41:24;;;;;;;3.20;1.40;;;;;;;16.13;100.00;100419.09;4827845;29;20296;-51
2022/07/27 10:44:28;;;;;;;1.93;1.27;;;;;;;16.50;100.00;100478.38;4828188;29;20329;-51
2022/07/27 10:47:00;;;;;;;4.50;1.07;;;;;;;16.52;100.00;100484.44;4827677;29;20295;-54
2022/07/27 10:49:36;;;;;;;2.00;1.37;;;;;;;16.33;100.00;100457.91;4827552;29;20312;-53
2022/07/27 10:52:41;;;;;;;3.40;1.70;;;;;;;16.48;100.00;100485.50;4827487;29;20297;-53
2022/07/27 10:55:45;;;;;;;1.30;1.20;;;;;;;16.49;100.00;100484.56;4827637;29;20058;-52
2022/07/27 10:58:57;;;;;;;1.40;1.10;;;;;;;16.48;100.00;100493.41;4826854;29;20307;-50
2022/07/27 11:01:28;;;;;;;3.90;1.10;;;;;;;16.50;100.00;100491.56;4822480;29;20314;-54
2022/07/27 11:04:10;;;;;;;1.40;1.10;;;;;;;16.52;100.00;100495.00;4826615;29;20311;-50
2022/07/27 11:06:42;;;;;;;2.67;1.10;;;;;;;16.46;100.00;100492.59;4827410;29;20505;-51
2022/07/27 11:09:37;;;;;;;3.23;1.20;;;;;;;16.42;100.00;100488.34;4826683;29;20374;-53
2022/07/27 11:12:30;;;;;;;1.80;1.10;;;;;;;16.41;100.00;100491.91;4826904;29;20483;-51
2022/07/27 11:15:01;;;;;;;1.93;1.00;;;;;;;16.44;100.00;100497.06;4826599;29;20279;-51
2022/07/27 11:17:32;;;;;;;3.70;1.50;;;;;;;16.42;100.00;100499.75;4827214;29;20301;-54
2022/07/27 11:20:24;;;;;;;2.47;1.27;;;;;;;16.39;100.00;100506.00;4827289;29;20434;-54
2022/07/27 11:23:01;;;;;;;1.40;1.20;;;;;;;16.43;100.00;100506.78;4826852;29;20345;-54
2022/07/27 11:25:58;;;;;;;2.57;1.33;;;;;;;16.41;100.00;100507.75;4827503;29;20491;-52
2022/07/27 11:28:33;;;;;;;1.83;1.27;;;;;;;16.41;100.00;100528.84;4826843;29;20584;-51
2022/07/27 11:31:06;;;;;;;2.03;1.23;;;;;;;16.42;100.00;100520.00;4827280;29;20310;-53
2022/07/27 11:33:37;;;;;;;3.33;1.30;;;;;;;16.28;100.00;100500.28;4827150;29;20288;-51
2022/07/27 11:36:08;;;;;;;0.73;0.70;;;;;;;16.26;100.00;100510.00;4827226;29;20340;-50
2022/07/27 11:38:52;;;;;;;2.80;1.27;;;;;;;16.24;100.00;100514.47;4826694;29;20288;-54
2022/07/27 11:41:24;;;;;;;3.10;1.10;;;;;;;16.29;100.00;100515.16;4826974;29;20348;-53
2022/07/27 11:44:16;;;;;;;2.80;1.00;;;;;;;16.33;100.00;100508.88;4826704;29;20348;-52
2022/07/27 11:46:49;;;;;;;19.03;1.60;;;;;;;16.26;100.00;100512.66;4826749;29;20292;-53
2022/07/27 11:49:27;;;;;;;1.67;0.90;;;;;;;16.22;100.00;100513.66;4826697;29;20299;-53
2022/07/27 11:51:59;;;;;;;1.70;1.00;;;;;;;16.14;100.00;100494.63;4826857;29;20327;-52
2022/07/27 11:54:34;;;;;;;0.70;0.70;;;;;;;15.95;100.00;100463.66;4826482;29;20454;-56
2022/07/27 11:57:06;;;;;;;1.93;0.80;;;;;;;16.28;100.00;100513.47;4826828;29;20333;-49